Tropical Cyclones
[Index]
Main Index Home Page Stock Weather Photos Extreme Storms Discussion Storm News and Storm Chasing Reports Tropical Cyclones / Hurricanes / Typhoons Weather Data and Links Wild Fires / Bushfires Weather Observation Techniques Weather Picture Catalogue Tornado Pictures and Reports Stock Video Footage and DVDs for sale
Season 1983-1984 Tropical Cyclone QUENTON Track Map
Season 1983-1984 Summaries: [BoM-AU] [JTWC-AU] [JTWC-SIO] [JTWC-SPAC] [JTWC-SH]
<<- Previous TC | BoM 1983-1984 Season | Next TC ->>

click for intensity scale information  Lat/long Grid: Show Hide

 Date Labels: Show Hide

Bureau of Meteorology Tropical Cyclone Data

Name: QUENTON
Number: 645 / 198384_03

26 Nov 1983 00:00 UTC to 30 Nov 1983 03:00 UTC

    date/time    lat    long    hPa   cat  kts
1983-11-26 00   10.5   112.8   1004                     
1983-11-26 06   10.7   112.9   1004                     
1983-11-26 12   11.0   113.0   1004                     
1983-11-26 18   11.4   113.0   1002                     
1983-11-27 00   12.0   113.1   1000                     
1983-11-27 06   12.6   113.3   1000                     
1983-11-27 12   13.0   114.0    998                     
1983-11-27 18   13.6   114.7    994    1                
1983-11-28 00   14.5   115.3    990    1                
1983-11-28 06   15.0   115.6    988    1                
1983-11-28 12   15.4   116.4    985    2                
1983-11-28 18   15.8   117.2    980    2                
1983-11-29 00   16.8   118.4    965    3                
1983-11-29 03   17.4   119.0    955    4                
1983-11-29 06   17.8   119.6    955    4                
1983-11-29 09   18.4   120.2    955    4                
1983-11-29 12   19.0   120.6    955    4                
1983-11-29 15   19.6   121.3    957    3                
1983-11-29 18   20.5   121.7    965    3                
1983-11-29 21   20.9   122.3    970    3                
1983-11-30 00   21.3   122.9    980    2                
1983-11-30 03   21.5   124.4    990    1                
Winds are 10-min average.

Tropical cyclone tracks developed by Michael Bath using data from the Bureau of Meteorology and Google Maps.


[Australian Severe Weather index] [Copyright Notice] [Email Contacts] [Search This Site] [Privacy Policy]
Document: tropical_cyclone_quenton.htm Updated: 30 May 2013